Valiant Energy — SVA6487 — position and weather

sailwx.info

Track history (hours):
 
Tides and Currents Weather Stations Pressure Air Temp Water Temp Dewpoint Dewpoint Depression Visibility Wind Speed Wind Dir Waves Ship Positions

Valiant Energy

Last reported at 2018-Jun-20 08:58 UTC. Time now 2018-Jun-20 09:24 UTC.
Position N 40°57' E 024°28'.

Length 65 m.

Type: Ship (hazmat cat B). MMSI: 239885800.

Date/timePositionNaut miles runAvg speedWind from/ knotsBaromVisibWave heightAir tempDewpointWater temp
2018-Jun-20 08:58N 40°57' E 024°28'0 0.0
2018-Jun-20 08:28N 40°57' E 024°28'0 0.0
2018-Jun-20 07:58N 40°57' E 024°28'0 0.0
2018-Jun-20 07:28N 40°57' E 024°28'0 0.0
2018-Jun-20 06:58N 40°57' E 024°28'0 0.0
2018-Jun-20 06:28N 40°57' E 024°28'0 0.0
2018-Jun-20 05:58N 40°57' E 024°28'1 1.9
2018-Jun-20 05:30N 40°56' E 024°29'3 5.5
2018-Jun-20 05:00N 40°53' E 024°30'5 9.8
2018-Jun-20 04:30N 40°49' E 024°30'1 1.2
2018-Jun-20 03:58N 40°48' E 024°30'0 0.0
2018-Jun-20 03:28N 40°48' E 024°30'0 0.0
2018-Jun-20 02:58N 40°48' E 024°30'0 0.0
2018-Jun-20 02:28N 40°48' E 024°30'0 0.0
2018-Jun-20 01:58N 40°48' E 024°30'0 0.0
2018-Jun-20 01:28N 40°48' E 024°30'0 0.0
2018-Jun-20 00:58N 40°48' E 024°30'0 0.0
2018-Jun-20 00:28N 40°48' E 024°30'0 0.0
2018-Jun-19 23:58N 40°48' E 024°30'0 0.0
2018-Jun-19 23:28N 40°48' E 024°30'0 0.0
2018-Jun-19 22:58N 40°48' E 024°30'0 0.0
2018-Jun-19 22:28N 40°48' E 024°30'0 0.0
2018-Jun-19 21:58N 40°48' E 024°30'0 0.0
2018-Jun-19 21:28N 40°48' E 024°30'0 0.0
2018-Jun-19 20:58N 40°48' E 024°30'0 0.0
2018-Jun-19 20:28N 40°48' E 024°30'0 0.0
2018-Jun-19 19:58N 40°48' E 024°30'0 0.0
2018-Jun-19 19:28N 40°48' E 024°30'0 0.0
2018-Jun-19 18:58N 40°48' E 024°30'0 0.0
2018-Jun-19 18:28N 40°48' E 024°30'0 0.0
2018-Jun-19 17:58N 40°48' E 024°30'0 0.0
2018-Jun-19 17:28N 40°48' E 024°30'0 0.0
2018-Jun-19 16:58N 40°48' E 024°30'0 0.0
2018-Jun-19 16:28N 40°48' E 024°30'0 0.0
2018-Jun-19 15:58N 40°48' E 024°30'0 0.0
2018-Jun-19 15:28N 40°48' E 024°30'0 0.6
2018-Jun-19 15:00N 40°48' E 024°30'1 2.0
2018-Jun-19 14:30N 40°49' E 024°30'510.3
2018-Jun-19 14:00N 40°54' E 024°29'3 5.0
2018-Jun-19 13:28N 40°57' E 024°28'0 0.0
2018-Jun-19 12:55N 40°57' E 024°28'0 0.0
2018-Jun-19 12:28N 40°57' E 024°28'0 0.0
2018-Jun-19 11:58N 40°57' E 024°28'0 0.0
2018-Jun-19 11:25N 40°57' E 024°28'0 0.0
2018-Jun-19 10:58N 40°57' E 024°28'0 0.0
2018-Jun-19 10:28N 40°57' E 024°28'0 0.0
2018-Jun-19 09:58N 40°57' E 024°28'0 0.0
2018-Jun-19 09:28N 40°57' E 024°28'0 0.0
2018-Jun-19 08:58N 40°57' E 024°28'0 0.0
2018-Jun-19 08:28N 40°57' E 024°28'0 0.0
2018-Jun-19 07:55N 40°57' E 024°28'0 0.0
2018-Jun-19 07:28N 40°57' E 024°28'0 0.0
2018-Jun-19 06:58N 40°57' E 024°28'0 0.0
2018-Jun-19 06:28N 40°57' E 024°28'0 0.0
2018-Jun-19 05:58N 40°57' E 024°28'0 0.1
2018-Jun-19 05:30N 40°57' E 024°28'4 8.6
2018-Jun-19 05:00N 40°53' E 024°30'5 8.6
2018-Jun-19 04:28N 40°48' E 024°30'0 0.6
2018-Jun-19 03:59N 40°48' E 024°30'0 0.0
2018-Jun-19 03:29N 40°48' E 024°30'0 0.0
2018-Jun-19 02:59N 40°48' E 024°30'0 0.0
2018-Jun-19 02:26N 40°48' E 024°30'0 0.0
2018-Jun-19 01:59N 40°48' E 024°30'0 0.0
2018-Jun-19 01:29N 40°48' E 024°30'0 0.0
2018-Jun-19 00:56N 40°48' E 024°30'0 0.0
2018-Jun-19 00:29N 40°48' E 024°30'0 0.0
2018-Jun-18 23:59N 40°48' E 024°30'0 0.0
2018-Jun-18 23:29N 40°48' E 024°30'0 0.0
2018-Jun-18 22:59N 40°48' E 024°30'0 0.0
2018-Jun-18 22:29N 40°48' E 024°30'0 0.0
2018-Jun-18 21:59N 40°48' E 024°30'0 0.0
2018-Jun-18 21:29N 40°48' E 024°30'0 0.0
2018-Jun-18 20:59N 40°48' E 024°30'0 0.0
2018-Jun-18 20:29N 40°48' E 024°30'0 0.0
2018-Jun-18 19:59N 40°48' E 024°30'0 0.0
2018-Jun-18 19:29N 40°48' E 024°30'0 0.0
2018-Jun-18 18:56N 40°48' E 024°30'0 0.0
2018-Jun-18 18:29N 40°48' E 024°30'0 0.0
2018-Jun-18 17:59N 40°48' E 024°30'0 0.0
2018-Jun-18 17:28N 40°48' E 024°30'0 0.0
2018-Jun-18 16:58N 40°48' E 024°30'0 0.0
2018-Jun-18 16:28N 40°48' E 024°30'0 0.0
2018-Jun-18 15:55N 40°48' E 024°30'0 0.0
2018-Jun-18 15:28N 40°48' E 024°30'0 0.0
2018-Jun-18 14:58N 40°48' E 024°30'0 0.0
2018-Jun-18 14:28N 40°48' E 024°30'2 3.8
2018-Jun-18 14:00N 40°50' E 024°30'510.1
2018-Jun-18 13:30N 40°55' E 024°29'2 3.9
2018-Jun-18 12:58N 40°57' E 024°28'0 0.0
2018-Jun-18 12:28N 40°57' E 024°28'0 0.0
2018-Jun-18 11:58N 40°57' E 024°28'0 0.0
2018-Jun-18 11:22N 40°57' E 024°28'0 0.0
2018-Jun-18 10:58N 40°57' E 024°28'0 0.0
2018-Jun-18 10:28N 40°57' E 024°28'0 0.0
2018-Jun-18 09:55N 40°57' E 024°28'0 0.0
2018-Jun-18 09:28N 40°57' E 024°28'0 0.0
2018-Jun-18 08:58N 40°57' E 024°28'1 2.1
2018-Jun-18 08:30N 40°56' E 024°29'5 9.5
2018-Jun-18 08:01N 40°51' E 024°29'3 6.7
2018-Jun-18 07:30N 40°48' E 024°30'0 0.1
2018-Jun-18 07:00N 40°48' E 024°30'0 0.4
2018-Jun-18 06:28N 40°48' E 024°30'0 0.0
2018-Jun-18 05:58N 40°48' E 024°30'0 0.0
2018-Jun-18 05:28N 40°48' E 024°30'0 0.0
2018-Jun-18 04:58N 40°48' E 024°30'0 0.0
2018-Jun-18 04:28N 40°48' E 024°30'0 0.0
2018-Jun-18 03:58N 40°48' E 024°30'0 0.0
2018-Jun-18 03:28N 40°48' E 024°30'0 0.0
2018-Jun-18 02:58N 40°48' E 024°30'0 0.0
2018-Jun-18 02:28N 40°48' E 024°30'0 0.0
2018-Jun-18 01:58N 40°48' E 024°30'0 0.0
2018-Jun-18 01:28N 40°48' E 024°30'0 0.0
2018-Jun-18 00:58N 40°48' E 024°30'0 0.0
2018-Jun-18 00:28N 40°48' E 024°30'0 0.0
2018-Jun-17 23:58N 40°48' E 024°30'0 0.0
2018-Jun-17 23:28N 40°48' E 024°30'0 0.0
2018-Jun-17 22:58N 40°48' E 024°30'0 0.0
2018-Jun-17 22:28N 40°48' E 024°30'0 0.0
2018-Jun-17 21:58N 40°48' E 024°30'0 0.0
2018-Jun-17 21:28N 40°48' E 024°30'0 0.0
2018-Jun-17 20:58N 40°48' E 024°30'0 0.0
2018-Jun-17 20:28N 40°48' E 024°30'0 0.0
2018-Jun-17 19:58N 40°48' E 024°30'0 0.0
2018-Jun-17 19:28N 40°48' E 024°30'0 0.0
2018-Jun-17 18:58N 40°48' E 024°30'0 0.0
2018-Jun-17 18:28N 40°48' E 024°30'0 0.0
2018-Jun-17 17:58N 40°48' E 024°30'0 0.0
2018-Jun-17 17:28N 40°48' E 024°30'0 0.0
2018-Jun-17 16:58N 40°48' E 024°30'0 0.0
2018-Jun-17 16:28N 40°48' E 024°30'0 0.0
2018-Jun-17 15:58N 40°48' E 024°30'0 0.0
2018-Jun-17 15:28N 40°48' E 024°30'0 0.0
2018-Jun-17 14:58N 40°48' E 024°30'0 0.0
2018-Jun-17 14:28N 40°48' E 024°30'0 0.0
2018-Jun-17 13:58N 40°48' E 024°30'0 0.0
2018-Jun-17 13:28N 40°48' E 024°30'0 0.0
2018-Jun-17 12:58N 40°48' E 024°30'0 0.0
2018-Jun-17 12:28N 40°48' E 024°30'0 0.0
2018-Jun-17 11:58N 40°48' E 024°30'0 0.0
2018-Jun-17 11:28N 40°48' E 024°30'0 0.0
2018-Jun-17 10:58N 40°48' E 024°30'0 0.0
2018-Jun-17 10:28N 40°48' E 024°30'0 0.0
2018-Jun-17 09:58N 40°48' E 024°30'0 0.0
2018-Jun-17 09:28N 40°48' E 024°30'0 0.0
2018-Jun-17 08:58N 40°48' E 024°30'0 0.0
2018-Jun-17 08:28N 40°48' E 024°30'0 0.0
2018-Jun-17 07:58N 40°48' E 024°30'0 0.0
2018-Jun-17 07:28N 40°48' E 024°30'0 0.0
2018-Jun-17 06:58N 40°48' E 024°30'0 0.0
2018-Jun-17 06:28N 40°48' E 024°30'0 0.0
2018-Jun-17 05:58N 40°48' E 024°30'0 0.0
2018-Jun-17 05:28N 40°48' E 024°30'0 0.0
2018-Jun-17 04:58N 40°48' E 024°30'0 0.0
2018-Jun-17 04:28N 40°48' E 024°30'0 0.0
2018-Jun-17 03:58N 40°48' E 024°30'0 0.0
2018-Jun-17 03:28N 40°48' E 024°30'0 0.0
2018-Jun-17 02:55N 40°48' E 024°30'0 0.0
2018-Jun-17 02:28N 40°48' E 024°30'0 0.0
2018-Jun-17 01:58N 40°48' E 024°30'0 0.0
2018-Jun-17 01:28N 40°48' E 024°30'0 0.0
2018-Jun-17 00:58N 40°48' E 024°30'0 0.0
2018-Jun-17 00:28N 40°48' E 024°30'0 0.0
2018-Jun-16 23:58N 40°48' E 024°30'0 0.0
2018-Jun-16 23:28N 40°48' E 024°30'0 0.0
2018-Jun-16 22:58N 40°48' E 024°30'0 0.0
2018-Jun-16 22:28N 40°48' E 024°30'0 0.0
2018-Jun-16 21:58N 40°48' E 024°30'0 0.0
2018-Jun-16 21:31N 40°48' E 024°30'0 0.0
2018-Jun-16 21:01N 40°48' E 024°30'0 0.0
2018-Jun-16 20:30N 40°48' E 024°30'0 0.0
2018-Jun-16 20:00N 40°48' E 024°30'0 0.0
2018-Jun-16 19:27N 40°48' E 024°30'0 0.0
2018-Jun-16 19:00N 40°48' E 024°30'0 0.0
2018-Jun-16 18:30N 40°48' E 024°30'0 0.0
2018-Jun-16 18:00N 40°48' E 024°30'0 0.0
2018-Jun-16 17:30N 40°48' E 024°30'0 0.0
2018-Jun-16 17:00N 40°48' E 024°30'0 0.0
2018-Jun-16 16:27N 40°48' E 024°30'0 0.0
2018-Jun-16 15:57N 40°48' E 024°30'0 0.0
2018-Jun-16 15:27N 40°48' E 024°30'0 0.0
2018-Jun-16 15:00N 40°48' E 024°30'0 0.0
2018-Jun-16 14:27N 40°48' E 024°30'0 0.0
2018-Jun-16 14:00N 40°48' E 024°30'0 0.0
2018-Jun-16 13:27N 40°48' E 024°30'0 0.0
2018-Jun-16 12:57N 40°48' E 024°30'0 0.1
2018-Jun-16 12:27N 40°48' E 024°30'4 9.1
2018-Jun-16 12:00N 40°52' E 024°30'5 9.3
2018-Jun-16 11:31N 40°57' E 024°29'0 0.8
2018-Jun-16 10:59N 40°57' E 024°28'0 0.0
2018-Jun-16 10:29N 40°57' E 024°28'0 0.0
2018-Jun-16 09:59N 40°57' E 024°28'0 0.0
2018-Jun-16 09:29N 40°57' E 024°28'0 0.0
2018-Jun-16 08:59N 40°57' E 024°28'0 0.0
2018-Jun-16 08:29N 40°57' E 024°28'0 0.0
2018-Jun-16 07:58N 40°57' E 024°28'0 0.0
2018-Jun-16 07:28N 40°57' E 024°28'0 0.0
2018-Jun-16 06:58N 40°57' E 024°28'0 0.0
2018-Jun-16 06:28N 40°57' E 024°28'0 0.0
2018-Jun-16 05:58N 40°57' E 024°28'0 0.1
2018-Jun-16 05:29N 40°57' E 024°28'4 8.0
2018-Jun-16 05:00N 40°53' E 024°29'5 9.7
2018-Jun-16 04:30N 40°48' E 024°30'0 0.4
2018-Jun-16 03:59N 40°48' E 024°30'0 0.0
2018-Jun-16 03:29N 40°48' E 024°30'0 0.0
2018-Jun-16 02:59N 40°48' E 024°30'0 0.0
2018-Jun-16 02:29N 40°48' E 024°30'0 0.0
2018-Jun-16 01:59N 40°48' E 024°30'0 0.0
2018-Jun-16 01:29N 40°48' E 024°30'0 0.0
2018-Jun-16 00:59N 40°48' E 024°30'0 0.0
2018-Jun-16 00:29N 40°48' E 024°30'0 0.0
2018-Jun-15 23:59N 40°48' E 024°30'0 0.0
2018-Jun-15 23:29N 40°48' E 024°30'0 0.0
2018-Jun-15 22:59N 40°48' E 024°30'0 0.0
2018-Jun-15 22:26N 40°48' E 024°30'0 0.0
2018-Jun-15 21:59N 40°48' E 024°30'0 0.0
2018-Jun-15 21:26N 40°48' E 024°30'0 0.0
2018-Jun-15 20:59N 40°48' E 024°30'0 0.0
2018-Jun-15 20:29N 40°48' E 024°30'0 0.0
2018-Jun-15 19:59N 40°48' E 024°30'0 0.0
2018-Jun-15 19:29N 40°48' E 024°30'0 0.0
2018-Jun-15 18:59N 40°48' E 024°30'0 0.0
2018-Jun-15 18:28N 40°48' E 024°30'0 0.0
2018-Jun-15 17:58N 40°48' E 024°30'0 0.0
2018-Jun-15 17:28N 40°48' E 024°30'0 0.0
2018-Jun-15 16:58N 40°48' E 024°30'0 0.0
2018-Jun-15 16:28N 40°48' E 024°30'0 0.0
2018-Jun-15 15:58N 40°48' E 024°30'0 0.0
2018-Jun-15 15:28N 40°48' E 024°30'0 0.0
2018-Jun-15 14:58N 40°48' E 024°30'0 0.6
2018-Jun-15 14:30N 40°48' E 024°30'3 6.9
2018-Jun-15 14:00N 40°51' E 024°30'5 9.8
2018-Jun-15 13:30N 40°56' E 024°29'1 1.6
2018-Jun-15 12:58N 40°57' E 024°28'0 0.0
2018-Jun-15 12:28N 40°57' E 024°28'0 0.0
2018-Jun-15 11:58N 40°57' E 024°28'0 0.0
2018-Jun-15 11:28N 40°57' E 024°28'0 0.0
2018-Jun-15 10:58N 40°57' E 024°28'0 0.0
2018-Jun-15 10:28N 40°57' E 024°28'0 0.0
2018-Jun-15 09:58N 40°57' E 024°28'0 0.0
2018-Jun-15 09:28N 40°57' E 024°28'0 0.0
2018-Jun-15 08:58N 40°57' E 024°28'0 0.0
2018-Jun-15 08:28N 40°57' E 024°28'0 0.0
2018-Jun-15 07:58N 40°57' E 024°28'0 0.0
2018-Jun-15 07:28N 40°57' E 024°28'3 6.2
2018-Jun-15 07:00N 40°54' E 024°29'5 9.8
2018-Jun-15 06:30N 40°49' E 024°30'1 2.1
2018-Jun-15 05:59N 40°48' E 024°30'0 0.0
2018-Jun-15 05:26N 40°48' E 024°30'0 0.0
2018-Jun-15 04:56N 40°48' E 024°30'0 0.0
2018-Jun-15 04:29N 40°48' E 024°30'0 0.0
2018-Jun-15 03:59N 40°48' E 024°30'0 0.0
2018-Jun-15 03:29N 40°48' E 024°30'0 0.0
2018-Jun-15 02:59N 40°48' E 024°30'0 0.0
2018-Jun-15 02:29N 40°48' E 024°30'0 0.0
2018-Jun-15 01:59N 40°48' E 024°30'0 0.0
2018-Jun-15 01:23N 40°48' E 024°30'0 0.0
2018-Jun-15 00:47N 40°48' E 024°30'0 0.0
2018-Jun-15 00:23N 40°48' E 024°30'0 0.0
2018-Jun-14 23:59N 40°48' E 024°30'0 0.0
2018-Jun-14 23:23N 40°48' E 024°30'0 0.0
2018-Jun-14 22:59N 40°48' E 024°30'0 0.0
2018-Jun-14 22:29N 40°48' E 024°30'0 0.0
2018-Jun-14 21:56N 40°48' E 024°30'0 0.0
2018-Jun-14 21:29N 40°48' E 024°30'0 0.0
2018-Jun-14 20:56N 40°48' E 024°30'0 0.0
2018-Jun-14 20:26N 40°48' E 024°30'0 0.0
2018-Jun-14 19:56N 40°48' E 024°30'0 0.0
2018-Jun-14 19:29N 40°48' E 024°30'0 0.6
2018-Jun-14 18:58N 40°48' E 024°30'3 7.2
2018-Jun-14 18:30N 40°51' E 024°30'510.1
2018-Jun-14 18:00N 40°56' E 024°29'1 1.1
2018-Jun-14 17:29N 40°57' E 024°28'0 0.0
2018-Jun-14 16:59N 40°57' E 024°28'0 0.0
2018-Jun-14 16:26N 40°57' E 024°28'0 0.0
2018-Jun-14 15:56N 40°57' E 024°28'0 0.0
2018-Jun-14 15:26N 40°57' E 024°28'0 0.0
2018-Jun-14 14:56N 40°57' E 024°28'0 0.0
2018-Jun-14 14:29N 40°57' E 024°28'0 0.0
2018-Jun-14 13:58N 40°57' E 024°28'0 0.0
2018-Jun-14 13:28N 40°57' E 024°28'0 0.0
2018-Jun-14 12:58N 40°57' E 024°28'0 0.0
2018-Jun-14 12:28N 40°57' E 024°28'0 0.0
2018-Jun-14 11:58N 40°57' E 024°28'0 0.0
2018-Jun-14 11:28N 40°57' E 024°28'0 0.0
2018-Jun-14 10:58N 40°57' E 024°28'0 0.0
2018-Jun-14 10:28N 40°57' E 024°28'0 0.0
2018-Jun-14 09:58N 40°57' E 024°28'0 0.0
2018-Jun-14 09:28N 40°57' E 024°28'0 0.0
2018-Jun-14 08:58N 40°57' E 024°28'0 0.0
2018-Jun-14 08:28N 40°57' E 024°28'0 0.0
2018-Jun-14 07:58N 40°57' E 024°28'0 0.0
2018-Jun-14 07:28N 40°57' E 024°28'0 0.0
2018-Jun-14 06:58N 40°57' E 024°28'0 0.4
2018-Jun-14 06:30N 40°57' E 024°29'5 9.0
2018-Jun-14 06:00N 40°52' E 024°30'4 7.6
2018-Jun-14 05:26N 40°48' E 024°30'0 0.0
2018-Jun-14 04:59N 40°48' E 024°30'0 0.0
2018-Jun-14 04:29N 40°48' E 024°30'0 0.0
2018-Jun-14 03:59N 40°48' E 024°30'0 0.6
2018-Jun-14 03:30N 40°48' E 024°30'0 0.0
2018-Jun-14 03:00N 40°48' E 024°30'0 0.0
2018-Jun-14 02:30N 40°48' E 024°30'0 0.0
2018-Jun-14 02:00N 40°48' E 024°30'0 0.0
2018-Jun-14 01:30N 40°48' E 024°30'0 0.0
2018-Jun-14 01:00N 40°48' E 024°30'0 0.0
2018-Jun-14 00:30N 40°48' E 024°30'0 0.0
2018-Jun-14 00:00N 40°48' E 024°30'0 0.0
2018-Jun-13 23:30N 40°48' E 024°30'0 0.0
2018-Jun-13 23:00N 40°48' E 024°30'0 0.0
2018-Jun-13 22:30N 40°48' E 024°30'0 0.0
2018-Jun-13 22:00N 40°48' E 024°30'0 0.0
2018-Jun-13 21:30N 40°48' E 024°30'0 0.0
2018-Jun-13 21:00N 40°48' E 024°30'0 0.0
2018-Jun-13 20:30N 40°48' E 024°30'0 0.0
2018-Jun-13 20:00N 40°48' E 024°30'0 0.0
2018-Jun-13 19:30N 40°48' E 024°30'0 0.0
2018-Jun-13 19:00N 40°48' E 024°30'0 0.0
2018-Jun-13 18:30N 40°48' E 024°30'0 0.0
2018-Jun-13 17:57N 40°48' E 024°30'0 0.0
2018-Jun-13 17:30N 40°48' E 024°30'0 0.0
2018-Jun-13 17:00N 40°48' E 024°30'0 0.0
2018-Jun-13 16:30N 40°48' E 024°30'0 0.0
2018-Jun-13 15:57N 40°48' E 024°30'0 0.0
2018-Jun-13 15:30N 40°48' E 024°30'0 0.1
2018-Jun-13 15:00N 40°48' E 024°30'0 0.5
2018-Jun-13 14:30N 40°48' E 024°30'0 0.5
2018-Jun-13 14:01N 40°48' E 024°30'5 9.6
2018-Jun-13 13:31N 40°53' E 024°30'4 8.0
2018-Jun-13 13:00N 40°57' E 024°28'0 0.0
2018-Jun-13 12:30N 40°57' E 024°28'0 0.0
2018-Jun-13 12:00N 40°57' E 024°28'0 0.0
2018-Jun-13 11:30N 40°57' E 024°28'0 0.0
2018-Jun-13 11:00N 40°57' E 024°28'0 0.0
2018-Jun-13 10:30N 40°57' E 024°28'0 0.0
2018-Jun-13 10:00N 40°57' E 024°28'0 0.0
2018-Jun-13 09:27N 40°57' E 024°28'0 0.0
2018-Jun-13 09:00N 40°57' E 024°28'0 0.0
2018-Jun-13 08:30N 40°57' E 024°28'0 0.0
2018-Jun-13 08:00N 40°57' E 024°28'0 0.0
2018-Jun-13 07:30N 40°57' E 024°28'0 0.0
2018-Jun-13 07:00N 40°57' E 024°28'0 0.0
2018-Jun-13 06:30N 40°57' E 024°28'0 0.0
2018-Jun-13 06:00N 40°57' E 024°28'1 2.7
2018-Jun-13 05:30N 40°56' E 024°29'5 9.8
2018-Jun-13 05:01N 40°51' E 024°30'3 5.8
2018-Jun-13 04:30N 40°48' E 024°30'0 0.5
2018-Jun-13 04:00N 40°48' E 024°30'0 0.0
2018-Jun-13 03:27N 40°48' E 024°30'0 0.0
2018-Jun-13 02:57N 40°48' E 024°30'0 0.0
2018-Jun-13 02:27N 40°48' E 024°30'0 0.0
2018-Jun-13 01:59N 40°48' E 024°30'0 0.0
2018-Jun-13 01:29N 40°48' E 024°30'0 0.0
2018-Jun-13 00:59N 40°48' E 024°30'0 0.0
2018-Jun-13 00:29N 40°48' E 024°30'0 0.0
2018-Jun-12 23:59N 40°48' E 024°30'0 0.0
2018-Jun-12 23:29N 40°48' E 024°30'0 0.0
2018-Jun-12 22:59N 40°48' E 024°30'0 0.0
2018-Jun-12 22:29N 40°48' E 024°30'0 0.0
2018-Jun-12 21:59N 40°48' E 024°30'0 0.0
2018-Jun-12 21:29N 40°48' E 024°30'0 0.0
2018-Jun-12 20:59N 40°48' E 024°30'0 0.0
2018-Jun-12 20:29N 40°48' E 024°30'0 0.0
2018-Jun-12 19:59N 40°48' E 024°30'0 0.0
2018-Jun-12 19:29N 40°48' E 024°30'0 0.0
2018-Jun-12 18:59N 40°48' E 024°30'0 0.0
2018-Jun-12 18:29N 40°48' E 024°30'0 0.0
2018-Jun-12 17:59N 40°48' E 024°30'0 0.0
2018-Jun-12 17:29N 40°48' E 024°30'0 0.0
2018-Jun-12 16:59N 40°48' E 024°30'0 0.0
2018-Jun-12 16:29N 40°48' E 024°30'0 0.0
2018-Jun-12 15:59N 40°48' E 024°30'0 0.0
2018-Jun-12 15:29N 40°48' E 024°30'0 0.0
2018-Jun-12 14:59N 40°48' E 024°30'0 0.1
2018-Jun-12 14:29N 40°48' E 024°30'1 1.5
2018-Jun-12 14:00N 40°49' E 024°30'3 6.1
2018-Jun-12 13:31N 40°51' E 024°28'1 1.2
2018-Jun-12 13:00N 40°51' E 024°29'1 1.4
2018-Jun-12 12:28N 40°51' E 024°30'4 9.1
2018-Jun-12 12:00N 40°55' E 024°29'2 3.2
2018-Jun-12 11:25N 40°57' E 024°28'0 0.0
2018-Jun-12 10:58N 40°57' E 024°28'0 0.0
2018-Jun-12 10:28N 40°57' E 024°28'0 0.0
2018-Jun-12 09:58N 40°57' E 024°28'0 0.0
2018-Jun-12 09:28N 40°57' E 024°28'0 0.0
2018-Jun-12 08:58N 40°57' E 024°28'0 0.0
2018-Jun-12 08:28N 40°57' E 024°28'0 0.0
2018-Jun-12 07:58N 40°57' E 024°28'0 0.0
2018-Jun-12 07:28N 40°57' E 024°28'0 0.0
2018-Jun-12 06:58N 40°57' E 024°28'0 0.0
2018-Jun-12 06:28N 40°57' E 024°28'0 0.0
2018-Jun-12 05:58N 40°57' E 024°28'2 5.2
2018-Jun-12 05:30N 40°54' E 024°29'5 9.6
2018-Jun-12 05:01N 40°50' E 024°29'2 3.3
2018-Jun-12 04:30N 40°48' E 024°30'0 0.4
2018-Jun-12 04:00N 40°48' E 024°30'0 0.0
2018-Jun-12 03:27N 40°48' E 024°30'0 0.0
2018-Jun-12 03:00N 40°48' E 024°30'0 0.0
2018-Jun-12 02:30N 40°48' E 024°30'0 0.0
2018-Jun-12 02:00N 40°48' E 024°30'0 0.0
2018-Jun-12 01:30N 40°48' E 024°30'0 0.0
2018-Jun-12 00:54N 40°48' E 024°30'0 0.0
2018-Jun-12 00:27N 40°48' E 024°30'0 0.0
2018-Jun-12 00:00N 40°48' E 024°30'0 0.0
2018-Jun-11 23:30N 40°48' E 024°30'0 0.0
2018-Jun-11 22:57N 40°48' E 024°30'0 0.0
2018-Jun-11 22:30N 40°48' E 024°30'0 0.0
2018-Jun-11 21:57N 40°48' E 024°30'0 0.0
2018-Jun-11 21:30N 40°48' E 024°30'0 0.0
2018-Jun-11 21:00N 40°48' E 024°30'0 0.0
2018-Jun-11 20:30N 40°48' E 024°30'0 0.0
2018-Jun-11 20:00N 40°48' E 024°30'0 0.0
2018-Jun-11 19:30N 40°48' E 024°30'0 0.0
2018-Jun-11 18:57N 40°48' E 024°30'0 0.0
2018-Jun-11 18:30N 40°48' E 024°30'0 0.0
2018-Jun-11 18:00N 40°48' E 024°30'0 0.0
2018-Jun-11 17:30N 40°48' E 024°30'0 0.0
2018-Jun-11 17:00N 40°48' E 024°30'0 0.0
2018-Jun-11 16:30N 40°48' E 024°30'0 0.0
2018-Jun-11 16:00N 40°48' E 024°30'0 0.0
2018-Jun-11 15:30N 40°48' E 024°30'0 0.0
2018-Jun-11 15:00N 40°48' E 024°30'0 0.0
2018-Jun-11 14:30N 40°48' E 024°30'0 0.0
2018-Jun-11 14:00N 40°48' E 024°30'0 0.0
2018-Jun-11 13:30N 40°48' E 024°30'0 0.0
2018-Jun-11 13:00N 40°48' E 024°30'0 0.0
2018-Jun-11 12:30N 40°48' E 024°30'0 0.0
2018-Jun-11 12:00N 40°48' E 024°30'0 0.0
2018-Jun-11 11:30N 40°48' E 024°30'0 0.0
2018-Jun-11 11:00N 40°48' E 024°30'0 0.0
2018-Jun-11 10:27N 40°48' E 024°30'0 0.0
2018-Jun-11 10:00N 40°48' E 024°30'0 0.0
2018-Jun-11 09:18N 40°48' E 024°30'0 0.0
2018-Jun-11 09:00N 40°48' E 024°30'0 0.0
2018-Jun-11 08:30N 40°48' E 024°30'0 0.0
2018-Jun-11 08:00N 40°48' E 024°30'0 0.0
2018-Jun-11 07:30N 40°48' E 024°30'0 0.0
2018-Jun-11 07:00N 40°48' E 024°30'0 0.0
2018-Jun-11 06:29N 40°48' E 024°30'0 0.0
2018-Jun-11 05:56N 40°48' E 024°30'0 0.0
2018-Jun-11 05:26N 40°48' E 024°30'0 0.0
2018-Jun-11 04:59N 40°48' E 024°30'1 2.9
2018-Jun-11 04:30N 40°49' E 024°30'510.2
2018-Jun-11 04:00N 40°54' E 024°29'2 4.7
2018-Jun-11 03:29N 40°57' E 024°28'0 0.0
2018-Jun-11 02:59N 40°57' E 024°28'0 0.0
2018-Jun-11 02:29N 40°57' E 024°28'0 0.0
2018-Jun-11 01:56N 40°57' E 024°28'0 0.0
2018-Jun-11 01:29N 40°57' E 024°28'0 0.0
2018-Jun-11 00:59N 40°57' E 024°28'0 0.0
2018-Jun-11 00:29N 40°57' E 024°28'0 0.0
2018-Jun-10 23:59N 40°57' E 024°28'0 0.0
2018-Jun-10 23:29N 40°57' E 024°28'0 0.0
2018-Jun-10 22:59N 40°57' E 024°28'0 0.0
2018-Jun-10 22:29N 40°57' E 024°28'0 0.0
2018-Jun-10 21:59N 40°57' E 024°28'0 0.0
2018-Jun-10 21:29N 40°57' E 024°28'0 0.0
2018-Jun-10 20:59N 40°57' E 024°28'0 0.0
2018-Jun-10 20:29N 40°57' E 024°28'0 0.0
2018-Jun-10 19:59N 40°57' E 024°28'0 0.0
2018-Jun-10 19:29N 40°57' E 024°28'0 0.0
2018-Jun-10 18:59N 40°57' E 024°28'0 0.0
2018-Jun-10 18:29N 40°57' E 024°28'0 0.0
2018-Jun-10 17:59N 40°57' E 024°28'0 0.0
2018-Jun-10 17:29N 40°57' E 024°28'0 0.0
2018-Jun-10 16:59N 40°57' E 024°28'0 0.0
2018-Jun-10 16:29N 40°57' E 024°28'0 0.0
2018-Jun-10 15:59N 40°57' E 024°28'0 0.0
2018-Jun-10 15:29N 40°57' E 024°28'0 0.0
2018-Jun-10 14:59N 40°57' E 024°28'0 0.0
2018-Jun-10 14:29N 40°57' E 024°28'0 0.0
2018-Jun-10 13:29N 40°57' E 024°28'0 0.0
2018-Jun-10 12:59N 40°57' E 024°28'0 0.0
2018-Jun-10 12:29N 40°57' E 024°28'0 0.0
2018-Jun-10 11:59N 40°57' E 024°28'0 0.0
2018-Jun-10 11:29N 40°57' E 024°28'0 0.0
2018-Jun-10 10:59N 40°57' E 024°28'0 0.0
2018-Jun-10 10:29N 40°57' E 024°28'0 0.0
2018-Jun-10 09:59N 40°57' E 024°28'0 0.0
2018-Jun-10 09:29N 40°57' E 024°28'0 0.0
2018-Jun-10 08:59N 40°57' E 024°28'  
Track history (hours):
 
Tides and Currents Weather Stations Pressure Air Temp Water Temp Dewpoint Dewpoint Depression Visibility Wind Speed Wind Dir Waves Ship Positions

Valiant Energy

Last reported at 2018-Jun-20 08:58 UTC. Time now 2018-Jun-20 09:24 UTC.
Position N 40°57' E 024°28'.

Length 65 m.

Type: Ship (hazmat cat B). MMSI: 239885800.

Date/timePositionNaut miles runAvg speedWind from/ knotsBaromVisibWave heightAir tempDewpointWater temp
2018-Jun-20 08:58N 40°57' E 024°28'0 0.0
2018-Jun-20 08:28N 40°57' E 024°28'0 0.0
2018-Jun-20 07:58N 40°57' E 024°28'0 0.0
2018-Jun-20 07:28N 40°57' E 024°28'0 0.0
2018-Jun-20 06:58N 40°57' E 024°28'0 0.0
2018-Jun-20 06:28N 40°57' E 024°28'0 0.0
2018-Jun-20 05:58N 40°57' E 024°28'1 1.9
2018-Jun-20 05:30N 40°56' E 024°29'3 5.5
2018-Jun-20 05:00N 40°53' E 024°30'5 9.8
2018-Jun-20 04:30N 40°49' E 024°30'1 1.2
2018-Jun-20 03:58N 40°48' E 024°30'0 0.0
2018-Jun-20 03:28N 40°48' E 024°30'0 0.0
2018-Jun-20 02:58N 40°48' E 024°30'0 0.0
2018-Jun-20 02:28N 40°48' E 024°30'0 0.0
2018-Jun-20 01:58N 40°48' E 024°30'0 0.0
2018-Jun-20 01:28N 40°48' E 024°30'0 0.0
2018-Jun-20 00:58N 40°48' E 024°30'0 0.0
2018-Jun-20 00:28N 40°48' E 024°30'0 0.0
2018-Jun-19 23:58N 40°48' E 024°30'0 0.0
2018-Jun-19 23:28N 40°48' E 024°30'0 0.0
2018-Jun-19 22:58N 40°48' E 024°30'0 0.0
2018-Jun-19 22:28N 40°48' E 024°30'0 0.0
2018-Jun-19 21:58N 40°48' E 024°30'0 0.0
2018-Jun-19 21:28N 40°48' E 024°30'0 0.0
2018-Jun-19 20:58N 40°48' E 024°30'0 0.0
2018-Jun-19 20:28N 40°48' E 024°30'0 0.0
2018-Jun-19 19:58N 40°48' E 024°30'0 0.0
2018-Jun-19 19:28N 40°48' E 024°30'0 0.0
2018-Jun-19 18:58N 40°48' E 024°30'0 0.0
2018-Jun-19 18:28N 40°48' E 024°30'0 0.0
2018-Jun-19 17:58N 40°48' E 024°30'0 0.0
2018-Jun-19 17:28N 40°48' E 024°30'0 0.0
2018-Jun-19 16:58N 40°48' E 024°30'0 0.0
2018-Jun-19 16:28N 40°48' E 024°30'0 0.0
2018-Jun-19 15:58N 40°48' E 024°30'0 0.0
2018-Jun-19 15:28N 40°48' E 024°30'0 0.6
2018-Jun-19 15:00N 40°48' E 024°30'1 2.0
2018-Jun-19 14:30N 40°49' E 024°30'510.3
2018-Jun-19 14:00N 40°54' E 024°29'3 5.0
2018-Jun-19 13:28N 40°57' E 024°28'0 0.0
2018-Jun-19 12:55N 40°57' E 024°28'0 0.0
2018-Jun-19 12:28N 40°57' E 024°28'0 0.0
2018-Jun-19 11:58N 40°57' E 024°28'0 0.0
2018-Jun-19 11:25N 40°57' E 024°28'0 0.0
2018-Jun-19 10:58N 40°57' E 024°28'0 0.0
2018-Jun-19 10:28N 40°57' E 024°28'0 0.0
2018-Jun-19 09:58N 40°57' E 024°28'0 0.0
2018-Jun-19 09:28N 40°57' E 024°28'0 0.0
2018-Jun-19 08:58N 40°57' E 024°28'0 0.0
2018-Jun-19 08:28N 40°57' E 024°28'0 0.0
2018-Jun-19 07:55N 40°57' E 024°28'0 0.0
2018-Jun-19 07:28N 40°57' E 024°28'0 0.0
2018-Jun-19 06:58N 40°57' E 024°28'0 0.0
2018-Jun-19 06:28N 40°57' E 024°28'0 0.0
2018-Jun-19 05:58N 40°57' E 024°28'0 0.1
2018-Jun-19 05:30N 40°57' E 024°28'4 8.6
2018-Jun-19 05:00N 40°53' E 024°30'5 8.6
2018-Jun-19 04:28N 40°48' E 024°30'0 0.6
2018-Jun-19 03:59N 40°48' E 024°30'0 0.0
2018-Jun-19 03:29N 40°48' E 024°30'0 0.0
2018-Jun-19 02:59N 40°48' E 024°30'0 0.0
2018-Jun-19 02:26N 40°48' E 024°30'0 0.0
2018-Jun-19 01:59N 40°48' E 024°30'0 0.0
2018-Jun-19 01:29N 40°48' E 024°30'0 0.0
2018-Jun-19 00:56N 40°48' E 024°30'0 0.0
2018-Jun-19 00:29N 40°48' E 024°30'0 0.0
2018-Jun-18 23:59N 40°48' E 024°30'0 0.0
2018-Jun-18 23:29N 40°48' E 024°30'0 0.0
2018-Jun-18 22:59N 40°48' E 024°30'0 0.0
2018-Jun-18 22:29N 40°48' E 024°30'0 0.0
2018-Jun-18 21:59N 40°48' E 024°30'0 0.0
2018-Jun-18 21:29N 40°48' E 024°30'0 0.0
2018-Jun-18 20:59N 40°48' E 024°30'0 0.0
2018-Jun-18 20:29N 40°48' E 024°30'0 0.0
2018-Jun-18 19:59N 40°48' E 024°30'0 0.0
2018-Jun-18 19:29N 40°48' E 024°30'0 0.0
2018-Jun-18 18:56N 40°48' E 024°30'0 0.0
2018-Jun-18 18:29N 40°48' E 024°30'0 0.0
2018-Jun-18 17:59N 40°48' E 024°30'0 0.0
2018-Jun-18 17:28N 40°48' E 024°30'0 0.0
2018-Jun-18 16:58N 40°48' E 024°30'0 0.0
2018-Jun-18 16:28N 40°48' E 024°30'0 0.0
2018-Jun-18 15:55N 40°48' E 024°30'0 0.0
2018-Jun-18 15:28N 40°48' E 024°30'0 0.0
2018-Jun-18 14:58N 40°48' E 024°30'0 0.0
2018-Jun-18 14:28N 40°48' E 024°30'2 3.8
2018-Jun-18 14:00N 40°50' E 024°30'510.1
2018-Jun-18 13:30N 40°55' E 024°29'2 3.9
2018-Jun-18 12:58N 40°57' E 024°28'0 0.0
2018-Jun-18 12:28N 40°57' E 024°28'0 0.0
2018-Jun-18 11:58N 40°57' E 024°28'0 0.0
2018-Jun-18 11:22N 40°57' E 024°28'0 0.0
2018-Jun-18 10:58N 40°57' E 024°28'0 0.0
2018-Jun-18 10:28N 40°57' E 024°28'0 0.0
2018-Jun-18 09:55N 40°57' E 024°28'0 0.0
2018-Jun-18 09:28N 40°57' E 024°28'0 0.0
2018-Jun-18 08:58N 40°57' E 024°28'1 2.1
2018-Jun-18 08:30N 40°56' E 024°29'5 9.5
2018-Jun-18 08:01N 40°51' E 024°29'3 6.7
2018-Jun-18 07:30N 40°48' E 024°30'0 0.1
2018-Jun-18 07:00N 40°48' E 024°30'0 0.4
2018-Jun-18 06:28N 40°48' E 024°30'0 0.0
2018-Jun-18 05:58N 40°48' E 024°30'0 0.0
2018-Jun-18 05:28N 40°48' E 024°30'0 0.0
2018-Jun-18 04:58N 40°48' E 024°30'0 0.0
2018-Jun-18 04:28N 40°48' E 024°30'0 0.0
2018-Jun-18 03:58N 40°48' E 024°30'0 0.0
2018-Jun-18 03:28N 40°48' E 024°30'0 0.0
2018-Jun-18 02:58N 40°48' E 024°30'0 0.0
2018-Jun-18 02:28N 40°48' E 024°30'0 0.0
2018-Jun-18 01:58N 40°48' E 024°30'0 0.0
2018-Jun-18 01:28N 40°48' E 024°30'0 0.0
2018-Jun-18 00:58N 40°48' E 024°30'0 0.0
2018-Jun-18 00:28N 40°48' E 024°30'0 0.0
2018-Jun-17 23:58N 40°48' E 024°30'0 0.0
2018-Jun-17 23:28N 40°48' E 024°30'0 0.0
2018-Jun-17 22:58N 40°48' E 024°30'0 0.0
2018-Jun-17 22:28N 40°48' E 024°30'0 0.0
2018-Jun-17 21:58N 40°48' E 024°30'0 0.0
2018-Jun-17 21:28N 40°48' E 024°30'0 0.0
2018-Jun-17 20:58N 40°48' E 024°30'0 0.0
2018-Jun-17 20:28N 40°48' E 024°30'0 0.0
2018-Jun-17 19:58N 40°48' E 024°30'0 0.0
2018-Jun-17 19:28N 40°48' E 024°30'0 0.0
2018-Jun-17 18:58N 40°48' E 024°30'0 0.0
2018-Jun-17 18:28N 40°48' E 024°30'0 0.0
2018-Jun-17 17:58N 40°48' E 024°30'0 0.0
2018-Jun-17 17:28N 40°48' E 024°30'0 0.0
2018-Jun-17 16:58N 40°48' E 024°30'0 0.0
2018-Jun-17 16:28N 40°48' E 024°30'0 0.0
2018-Jun-17 15:58N 40°48' E 024°30'0 0.0
2018-Jun-17 15:28N 40°48' E 024°30'0 0.0
2018-Jun-17 14:58N 40°48' E 024°30'0 0.0
2018-Jun-17 14:28N 40°48' E 024°30'0 0.0
2018-Jun-17 13:58N 40°48' E 024°30'0 0.0
2018-Jun-17 13:28N 40°48' E 024°30'0 0.0
2018-Jun-17 12:58N 40°48' E 024°30'0 0.0
2018-Jun-17 12:28N 40°48' E 024°30'0 0.0
2018-Jun-17 11:58N 40°48' E 024°30'0 0.0
2018-Jun-17 11:28N 40°48' E 024°30'0 0.0
2018-Jun-17 10:58N 40°48' E 024°30'0 0.0
2018-Jun-17 10:28N 40°48' E 024°30'0 0.0
2018-Jun-17 09:58N 40°48' E 024°30'0 0.0
2018-Jun-17 09:28N 40°48' E 024°30'0 0.0
2018-Jun-17 08:58N 40°48' E 024°30'0 0.0
2018-Jun-17 08:28N 40°48' E 024°30'0 0.0
2018-Jun-17 07:58N 40°48' E 024°30'0 0.0
2018-Jun-17 07:28N 40°48' E 024°30'0 0.0
2018-Jun-17 06:58N 40°48' E 024°30'0 0.0
2018-Jun-17 06:28N 40°48' E 024°30'0 0.0
2018-Jun-17 05:58N 40°48' E 024°30'0 0.0
2018-Jun-17 05:28N 40°48' E 024°30'0 0.0
2018-Jun-17 04:58N 40°48' E 024°30'0 0.0
2018-Jun-17 04:28N 40°48' E 024°30'0 0.0
2018-Jun-17 03:58N 40°48' E 024°30'0 0.0
2018-Jun-17 03:28N 40°48' E 024°30'0 0.0
2018-Jun-17 02:55N 40°48' E 024°30'0 0.0
2018-Jun-17 02:28N 40°48' E 024°30'0 0.0
2018-Jun-17 01:58N 40°48' E 024°30'0 0.0
2018-Jun-17 01:28N 40°48' E 024°30'0 0.0
2018-Jun-17 00:58N 40°48' E 024°30'0 0.0
2018-Jun-17 00:28N 40°48' E 024°30'0 0.0
2018-Jun-16 23:58N 40°48' E 024°30'0 0.0
2018-Jun-16 23:28N 40°48' E 024°30'0 0.0
2018-Jun-16 22:58N 40°48' E 024°30'0 0.0
2018-Jun-16 22:28N 40°48' E 024°30'0 0.0
2018-Jun-16 21:58N 40°48' E 024°30'0 0.0
2018-Jun-16 21:31N 40°48' E 024°30'0 0.0
2018-Jun-16 21:01N 40°48' E 024°30'0 0.0
2018-Jun-16 20:30N 40°48' E 024°30'0 0.0
2018-Jun-16 20:00N 40°48' E 024°30'0 0.0
2018-Jun-16 19:27N 40°48' E 024°30'0 0.0
2018-Jun-16 19:00N 40°48' E 024°30'0 0.0
2018-Jun-16 18:30N 40°48' E 024°30'0 0.0
2018-Jun-16 18:00N 40°48' E 024°30'0 0.0
2018-Jun-16 17:30N 40°48' E 024°30'0 0.0
2018-Jun-16 17:00N 40°48' E 024°30'0 0.0
2018-Jun-16 16:27N 40°48' E 024°30'0 0.0
2018-Jun-16 15:57N 40°48' E 024°30'0 0.0
2018-Jun-16 15:27N 40°48' E 024°30'0 0.0
2018-Jun-16 15:00N 40°48' E 024°30'0 0.0
2018-Jun-16 14:27N 40°48' E 024°30'0 0.0
2018-Jun-16 14:00N 40°48' E 024°30'0 0.0
2018-Jun-16 13:27N 40°48' E 024°30'0 0.0
2018-Jun-16 12:57N 40°48' E 024°30'0 0.1
2018-Jun-16 12:27N 40°48' E 024°30'4 9.1
2018-Jun-16 12:00N 40°52' E 024°30'5 9.3
2018-Jun-16 11:31N 40°57' E 024°29'0 0.8
2018-Jun-16 10:59N 40°57' E 024°28'0 0.0
2018-Jun-16 10:29N 40°57' E 024°28'0 0.0
2018-Jun-16 09:59N 40°57' E 024°28'0 0.0
2018-Jun-16 09:29N 40°57' E 024°28'0 0.0
2018-Jun-16 08:59N 40°57' E 024°28'0 0.0
2018-Jun-16 08:29N 40°57' E 024°28'0 0.0
2018-Jun-16 07:58N 40°57' E 024°28'0 0.0
2018-Jun-16 07:28N 40°57' E 024°28'0 0.0
2018-Jun-16 06:58N 40°57' E 024°28'0 0.0
2018-Jun-16 06:28N 40°57' E 024°28'0 0.0
2018-Jun-16 05:58N 40°57' E 024°28'0 0.1
2018-Jun-16 05:29N 40°57' E 024°28'4 8.0
2018-Jun-16 05:00N 40°53' E 024°29'5 9.7
2018-Jun-16 04:30N 40°48' E 024°30'0 0.4
2018-Jun-16 03:59N 40°48' E 024°30'0 0.0
2018-Jun-16 03:29N 40°48' E 024°30'0 0.0
2018-Jun-16 02:59N 40°48' E 024°30'0 0.0
2018-Jun-16 02:29N 40°48' E 024°30'0 0.0
2018-Jun-16 01:59N 40°48' E 024°30'0 0.0
2018-Jun-16 01:29N 40°48' E 024°30'0 0.0
2018-Jun-16 00:59N 40°48' E 024°30'0 0.0
2018-Jun-16 00:29N 40°48' E 024°30'0 0.0
2018-Jun-15 23:59N 40°48' E 024°30'0 0.0
2018-Jun-15 23:29N 40°48' E 024°30'0 0.0
2018-Jun-15 22:59N 40°48' E 024°30'0 0.0
2018-Jun-15 22:26N 40°48' E 024°30'0 0.0
2018-Jun-15 21:59N 40°48' E 024°30'0 0.0
2018-Jun-15 21:26N 40°48' E 024°30'0 0.0
2018-Jun-15 20:59N 40°48' E 024°30'0 0.0
2018-Jun-15 20:29N 40°48' E 024°30'0 0.0
2018-Jun-15 19:59N 40°48' E 024°30'0 0.0
2018-Jun-15 19:29N 40°48' E 024°30'0 0.0
2018-Jun-15 18:59N 40°48' E 024°30'0 0.0
2018-Jun-15 18:28N 40°48' E 024°30'0 0.0
2018-Jun-15 17:58N 40°48' E 024°30'0 0.0
2018-Jun-15 17:28N 40°48' E 024°30'0 0.0
2018-Jun-15 16:58N 40°48' E 024°30'0 0.0
2018-Jun-15 16:28N 40°48' E 024°30'0 0.0
2018-Jun-15 15:58N 40°48' E 024°30'0 0.0
2018-Jun-15 15:28N 40°48' E 024°30'0 0.0
2018-Jun-15 14:58N 40°48' E 024°30'0 0.6
2018-Jun-15 14:30N 40°48' E 024°30'3 6.9
2018-Jun-15 14:00N 40°51' E 024°30'5 9.8
2018-Jun-15 13:30N 40°56' E 024°29'1 1.6
2018-Jun-15 12:58N 40°57' E 024°28'0 0.0
2018-Jun-15 12:28N 40°57' E 024°28'0 0.0
2018-Jun-15 11:58N 40°57' E 024°28'0 0.0
2018-Jun-15 11:28N 40°57' E 024°28'0 0.0
2018-Jun-15 10:58N 40°57' E 024°28'0 0.0
2018-Jun-15 10:28N 40°57' E 024°28'0 0.0
2018-Jun-15 09:58N 40°57' E 024°28'0 0.0
2018-Jun-15 09:28N 40°57' E 024°28'0 0.0
2018-Jun-15 08:58N 40°57' E 024°28'0 0.0
2018-Jun-15 08:28N 40°57' E 024°28'0 0.0
2018-Jun-15 07:58N 40°57' E 024°28'0 0.0
2018-Jun-15 07:28N 40°57' E 024°28'3 6.2
2018-Jun-15 07:00N 40°54' E 024°29'5 9.8
2018-Jun-15 06:30N 40°49' E 024°30'1 2.1
2018-Jun-15 05:59N 40°48' E 024°30'0 0.0
2018-Jun-15 05:26N 40°48' E 024°30'0 0.0
2018-Jun-15 04:56N 40°48' E 024°30'0 0.0
2018-Jun-15 04:29N 40°48' E 024°30'0 0.0
2018-Jun-15 03:59N 40°48' E 024°30'0 0.0
2018-Jun-15 03:29N 40°48' E 024°30'0 0.0
2018-Jun-15 02:59N 40°48' E 024°30'0 0.0
2018-Jun-15 02:29N 40°48' E 024°30'0 0.0
2018-Jun-15 01:59N 40°48' E 024°30'0 0.0
2018-Jun-15 01:23N 40°48' E 024°30'0 0.0
2018-Jun-15 00:47N 40°48' E 024°30'0 0.0
2018-Jun-15 00:23N 40°48' E 024°30'0 0.0
2018-Jun-14 23:59N 40°48' E 024°30'0 0.0
2018-Jun-14 23:23N 40°48' E 024°30'0 0.0
2018-Jun-14 22:59N 40°48' E 024°30'0 0.0
2018-Jun-14 22:29N 40°48' E 024°30'0 0.0
2018-Jun-14 21:56N 40°48' E 024°30'0 0.0
2018-Jun-14 21:29N 40°48' E 024°30'0 0.0
2018-Jun-14 20:56N 40°48' E 024°30'0 0.0
2018-Jun-14 20:26N 40°48' E 024°30'0 0.0
2018-Jun-14 19:56N 40°48' E 024°30'0 0.0
2018-Jun-14 19:29N 40°48' E 024°30'0 0.6
2018-Jun-14 18:58N 40°48' E 024°30'3 7.2
2018-Jun-14 18:30N 40°51' E 024°30'510.1
2018-Jun-14 18:00N 40°56' E 024°29'1 1.1
2018-Jun-14 17:29N 40°57' E 024°28'0 0.0
2018-Jun-14 16:59N 40°57' E 024°28'0 0.0
2018-Jun-14 16:26N 40°57' E 024°28'0 0.0
2018-Jun-14 15:56N 40°57' E 024°28'0 0.0
2018-Jun-14 15:26N 40°57' E 024°28'0 0.0
2018-Jun-14 14:56N 40°57' E 024°28'0 0.0
2018-Jun-14 14:29N 40°57' E 024°28'0 0.0
2018-Jun-14 13:58N 40°57' E 024°28'0 0.0
2018-Jun-14 13:28N 40°57' E 024°28'0 0.0
2018-Jun-14 12:58N 40°57' E 024°28'0 0.0
2018-Jun-14 12:28N 40°57' E 024°28'0 0.0
2018-Jun-14 11:58N 40°57' E 024°28'0 0.0
2018-Jun-14 11:28N 40°57' E 024°28'0 0.0
2018-Jun-14 10:58N 40°57' E 024°28'0 0.0
2018-Jun-14 10:28N 40°57' E 024°28'0 0.0
2018-Jun-14 09:58N 40°57' E 024°28'0 0.0
2018-Jun-14 09:28N 40°57' E 024°28'0 0.0
2018-Jun-14 08:58N 40°57' E 024°28'0 0.0
2018-Jun-14 08:28N 40°57' E 024°28'0 0.0
2018-Jun-14 07:58N 40°57' E 024°28'0 0.0
2018-Jun-14 07:28N 40°57' E 024°28'0 0.0
2018-Jun-14 06:58N 40°57' E 024°28'0 0.4
2018-Jun-14 06:30N 40°57' E 024°29'5 9.0
2018-Jun-14 06:00N 40°52' E 024°30'4 7.6
2018-Jun-14 05:26N 40°48' E 024°30'0 0.0
2018-Jun-14 04:59N 40°48' E 024°30'0 0.0
2018-Jun-14 04:29N 40°48' E 024°30'0 0.0
2018-Jun-14 03:59N 40°48' E 024°30'0 0.6
2018-Jun-14 03:30N 40°48' E 024°30'0 0.0
2018-Jun-14 03:00N 40°48' E 024°30'0 0.0
2018-Jun-14 02:30N 40°48' E 024°30'0 0.0
2018-Jun-14 02:00N 40°48' E 024°30'0 0.0
2018-Jun-14 01:30N 40°48' E 024°30'0 0.0
2018-Jun-14 01:00N 40°48' E 024°30'0 0.0
2018-Jun-14 00:30N 40°48' E 024°30'0 0.0
2018-Jun-14 00:00N 40°48' E 024°30'0 0.0
2018-Jun-13 23:30N 40°48' E 024°30'0 0.0
2018-Jun-13 23:00N 40°48' E 024°30'0 0.0
2018-Jun-13 22:30N 40°48' E 024°30'0 0.0
2018-Jun-13 22:00N 40°48' E 024°30'0 0.0
2018-Jun-13 21:30N 40°48' E 024°30'0 0.0
2018-Jun-13 21:00N 40°48' E 024°30'0 0.0
2018-Jun-13 20:30N 40°48' E 024°30'0 0.0
2018-Jun-13 20:00N 40°48' E 024°30'0 0.0
2018-Jun-13 19:30N 40°48' E 024°30'0 0.0
2018-Jun-13 19:00N 40°48' E 024°30'0 0.0
2018-Jun-13 18:30N 40°48' E 024°30'0 0.0
2018-Jun-13 17:57N 40°48' E 024°30'0 0.0
2018-Jun-13 17:30N 40°48' E 024°30'0 0.0
2018-Jun-13 17:00N 40°48' E 024°30'0 0.0
2018-Jun-13 16:30N 40°48' E 024°30'0 0.0
2018-Jun-13 15:57N 40°48' E 024°30'0 0.0
2018-Jun-13 15:30N 40°48' E 024°30'0 0.1
2018-Jun-13 15:00N 40°48' E 024°30'0 0.5
2018-Jun-13 14:30N 40°48' E 024°30'0 0.5
2018-Jun-13 14:01N 40°48' E 024°30'5 9.6
2018-Jun-13 13:31N 40°53' E 024°30'4 8.0
2018-Jun-13 13:00N 40°57' E 024°28'0 0.0
2018-Jun-13 12:30N 40°57' E 024°28'0 0.0
2018-Jun-13 12:00N 40°57' E 024°28'0 0.0
2018-Jun-13 11:30N 40°57' E 024°28'0 0.0
2018-Jun-13 11:00N 40°57' E 024°28'0 0.0
2018-Jun-13 10:30N 40°57' E 024°28'0 0.0
2018-Jun-13 10:00N 40°57' E 024°28'0 0.0
2018-Jun-13 09:27N 40°57' E 024°28'0 0.0
2018-Jun-13 09:00N 40°57' E 024°28'0 0.0
2018-Jun-13 08:30N 40°57' E 024°28'0 0.0
2018-Jun-13 08:00N 40°57' E 024°28'0 0.0
2018-Jun-13 07:30N 40°57' E 024°28'0 0.0
2018-Jun-13 07:00N 40°57' E 024°28'0 0.0
2018-Jun-13 06:30N 40°57' E 024°28'0 0.0
2018-Jun-13 06:00N 40°57' E 024°28'1 2.7
2018-Jun-13 05:30N 40°56' E 024°29'5 9.8
2018-Jun-13 05:01N 40°51' E 024°30'3 5.8
2018-Jun-13 04:30N 40°48' E 024°30'0 0.5
2018-Jun-13 04:00N 40°48' E 024°30'0 0.0
2018-Jun-13 03:27N 40°48' E 024°30'0 0.0
2018-Jun-13 02:57N 40°48' E 024°30'0 0.0
2018-Jun-13 02:27N 40°48' E 024°30'0 0.0
2018-Jun-13 01:59N 40°48' E 024°30'0 0.0
2018-Jun-13 01:29N 40°48' E 024°30'0 0.0
2018-Jun-13 00:59N 40°48' E 024°30'0 0.0
2018-Jun-13 00:29N 40°48' E 024°30'0 0.0
2018-Jun-12 23:59N 40°48' E 024°30'0 0.0
2018-Jun-12 23:29N 40°48' E 024°30'0 0.0
2018-Jun-12 22:59N 40°48' E 024°30'0 0.0
2018-Jun-12 22:29N 40°48' E 024°30'0 0.0
2018-Jun-12 21:59N 40°48' E 024°30'0 0.0
2018-Jun-12 21:29N 40°48' E 024°30'0 0.0
2018-Jun-12 20:59N 40°48' E 024°30'0 0.0
2018-Jun-12 20:29N 40°48' E 024°30'0 0.0
2018-Jun-12 19:59N 40°48' E 024°30'0 0.0
2018-Jun-12 19:29N 40°48' E 024°30'0 0.0
2018-Jun-12 18:59N 40°48' E 024°30'0 0.0
2018-Jun-12 18:29N 40°48' E 024°30'0 0.0
2018-Jun-12 17:59N 40°48' E 024°30'0 0.0
2018-Jun-12 17:29N 40°48' E 024°30'0 0.0
2018-Jun-12 16:59N 40°48' E 024°30'0 0.0
2018-Jun-12 16:29N 40°48' E 024°30'0 0.0
2018-Jun-12 15:59N 40°48' E 024°30'0 0.0
2018-Jun-12 15:29N 40°48' E 024°30'0 0.0
2018-Jun-12 14:59N 40°48' E 024°30'0 0.1
2018-Jun-12 14:29N 40°48' E 024°30'1 1.5
2018-Jun-12 14:00N 40°49' E 024°30'3 6.1
2018-Jun-12 13:31N 40°51' E 024°28'1 1.2
2018-Jun-12 13:00N 40°51' E 024°29'1 1.4
2018-Jun-12 12:28N 40°51' E 024°30'4 9.1
2018-Jun-12 12:00N 40°55' E 024°29'2 3.2
2018-Jun-12 11:25N 40°57' E 024°28'0 0.0
2018-Jun-12 10:58N 40°57' E 024°28'0 0.0
2018-Jun-12 10:28N 40°57' E 024°28'0 0.0
2018-Jun-12 09:58N 40°57' E 024°28'0 0.0
2018-Jun-12 09:28N 40°57' E 024°28'0 0.0
2018-Jun-12 08:58N 40°57' E 024°28'0 0.0
2018-Jun-12 08:28N 40°57' E 024°28'0 0.0
2018-Jun-12 07:58N 40°57' E 024°28'0 0.0
2018-Jun-12 07:28N 40°57' E 024°28'0 0.0
2018-Jun-12 06:58N 40°57' E 024°28'0 0.0
2018-Jun-12 06:28N 40°57' E 024°28'0 0.0
2018-Jun-12 05:58N 40°57' E 024°28'2 5.2
2018-Jun-12 05:30N 40°54' E 024°29'5 9.6
2018-Jun-12 05:01N 40°50' E 024°29'2 3.3
2018-Jun-12 04:30N 40°48' E 024°30'0 0.4
2018-Jun-12 04:00N 40°48' E 024°30'0 0.0
2018-Jun-12 03:27N 40°48' E 024°30'0 0.0
2018-Jun-12 03:00N 40°48' E 024°30'0 0.0
2018-Jun-12 02:30N 40°48' E 024°30'0 0.0
2018-Jun-12 02:00N 40°48' E 024°30'0 0.0
2018-Jun-12 01:30N 40°48' E 024°30'0 0.0
2018-Jun-12 00:54N 40°48' E 024°30'0 0.0
2018-Jun-12 00:27N 40°48' E 024°30'0 0.0
2018-Jun-12 00:00N 40°48' E 024°30'0 0.0
2018-Jun-11 23:30N 40°48' E 024°30'0 0.0
2018-Jun-11 22:57N 40°48' E 024°30'0 0.0
2018-Jun-11 22:30N 40°48' E 024°30'0 0.0
2018-Jun-11 21:57N 40°48' E 024°30'0 0.0
2018-Jun-11 21:30N 40°48' E 024°30'0 0.0
2018-Jun-11 21:00N 40°48' E 024°30'0 0.0
2018-Jun-11 20:30N 40°48' E 024°30'0 0.0
2018-Jun-11 20:00N 40°48' E 024°30'0 0.0
2018-Jun-11 19:30N 40°48' E 024°30'0 0.0
2018-Jun-11 18:57N 40°48' E 024°30'0 0.0
2018-Jun-11 18:30N 40°48' E 024°30'0 0.0
2018-Jun-11 18:00N 40°48' E 024°30'0 0.0
2018-Jun-11 17:30N 40°48' E 024°30'0 0.0
2018-Jun-11 17:00N 40°48' E 024°30'0 0.0
2018-Jun-11 16:30N 40°48' E 024°30'0 0.0
2018-Jun-11 16:00N 40°48' E 024°30'0 0.0
2018-Jun-11 15:30N 40°48' E 024°30'0 0.0
2018-Jun-11 15:00N 40°48' E 024°30'0 0.0
2018-Jun-11 14:30N 40°48' E 024°30'0 0.0
2018-Jun-11 14:00N 40°48' E 024°30'0 0.0
2018-Jun-11 13:30N 40°48' E 024°30'0 0.0
2018-Jun-11 13:00N 40°48' E 024°30'0 0.0
2018-Jun-11 12:30N 40°48' E 024°30'0 0.0
2018-Jun-11 12:00N 40°48' E 024°30'0 0.0
2018-Jun-11 11:30N 40°48' E 024°30'0 0.0
2018-Jun-11 11:00N 40°48' E 024°30'0 0.0
2018-Jun-11 10:27N 40°48' E 024°30'0 0.0
2018-Jun-11 10:00N 40°48' E 024°30'0 0.0
2018-Jun-11 09:18N 40°48' E 024°30'0 0.0
2018-Jun-11 09:00N 40°48' E 024°30'0 0.0
2018-Jun-11 08:30N 40°48' E 024°30'0 0.0
2018-Jun-11 08:00N 40°48' E 024°30'0 0.0
2018-Jun-11 07:30N 40°48' E 024°30'0 0.0
2018-Jun-11 07:00N 40°48' E 024°30'0 0.0
2018-Jun-11 06:29N 40°48' E 024°30'0 0.0
2018-Jun-11 05:56N 40°48' E 024°30'0 0.0
2018-Jun-11 05:26N 40°48' E 024°30'0 0.0
2018-Jun-11 04:59N 40°48' E 024°30'1 2.9
2018-Jun-11 04:30N 40°49' E 024°30'510.2
2018-Jun-11 04:00N 40°54' E 024°29'2 4.7
2018-Jun-11 03:29N 40°57' E 024°28'0 0.0
2018-Jun-11 02:59N 40°57' E 024°28'0 0.0
2018-Jun-11 02:29N 40°57' E 024°28'0 0.0
2018-Jun-11 01:56N 40°57' E 024°28'0 0.0
2018-Jun-11 01:29N 40°57' E 024°28'0 0.0
2018-Jun-11 00:59N 40°57' E 024°28'0 0.0
2018-Jun-11 00:29N 40°57' E 024°28'0 0.0
2018-Jun-10 23:59N 40°57' E 024°28'0 0.0
2018-Jun-10 23:29N 40°57' E 024°28'0 0.0
2018-Jun-10 22:59N 40°57' E 024°28'0 0.0
2018-Jun-10 22:29N 40°57' E 024°28'0 0.0
2018-Jun-10 21:59N 40°57' E 024°28'0 0.0
2018-Jun-10 21:29N 40°57' E 024°28'0 0.0
2018-Jun-10 20:59N 40°57' E 024°28'0 0.0
2018-Jun-10 20:29N 40°57' E 024°28'0 0.0
2018-Jun-10 19:59N 40°57' E 024°28'0 0.0
2018-Jun-10 19:29N 40°57' E 024°28'0 0.0
2018-Jun-10 18:59N 40°57' E 024°28'0 0.0
2018-Jun-10 18:29N 40°57' E 024°28'0 0.0
2018-Jun-10 17:59N 40°57' E 024°28'0 0.0
2018-Jun-10 17:29N 40°57' E 024°28'0 0.0
2018-Jun-10 16:59N 40°57' E 024°28'0 0.0
2018-Jun-10 16:29N 40°57' E 024°28'0 0.0
2018-Jun-10 15:59N 40°57' E 024°28'0 0.0
2018-Jun-10 15:29N 40°57' E 024°28'0 0.0
2018-Jun-10 14:59N 40°57' E 024°28'0 0.0
2018-Jun-10 14:29N 40°57' E 024°28'0 0.0
2018-Jun-10 13:29N 40°57' E 024°28'0 0.0
2018-Jun-10 12:59N 40°57' E 024°28'0 0.0
2018-Jun-10 12:29N 40°57' E 024°28'0 0.0
2018-Jun-10 11:59N 40°57' E 024°28'0 0.0
2018-Jun-10 11:29N 40°57' E 024°28'0 0.0
2018-Jun-10 10:59N 40°57' E 024°28'0 0.0
2018-Jun-10 10:29N 40°57' E 024°28'0 0.0
2018-Jun-10 09:59N 40°57' E 024°28'0 0.0
2018-Jun-10 09:29N 40°57' E 024°28'0 0.0
2018-Jun-10 08:59N 40°57' E 024°28'  

Dump ship's entire track history